createdAt,value
2023-03-06T00:00:56.769Z,97835.63
2023-03-06T00:03:27.722Z,97833.91
2023-03-06T00:05:57.493Z,97823.50
2023-03-06T00:08:26.640Z,97831.34
2023-03-06T00:10:54.929Z,97833.03
2023-03-06T00:13:22.560Z,97826.06
2023-03-06T00:15:50.415Z,97831.41
2023-03-06T00:18:17.671Z,97830.50
2023-03-06T00:20:45.304Z,97830.66
2023-03-06T00:23:13.071Z,97829.88
2023-03-06T00:25:45.294Z,97829.81
2023-03-06T00:28:14.917Z,97831.38
2023-03-06T00:30:43.150Z,97822.72
2023-03-06T00:33:10.623Z,97826.13
2023-03-06T00:35:42.016Z,97817.50
2023-03-06T00:38:12.456Z,97820.19
2023-03-06T00:40:39.981Z,97811.78
2023-03-06T00:43:07.217Z,97801.53
2023-03-06T00:45:34.550Z,97803.94
2023-03-06T00:48:01.621Z,97804.78
2023-03-06T00:50:28.869Z,97806.72
2023-03-06T00:52:55.913Z,97797.91
2023-03-06T00:55:23.298Z,97792.66
2023-03-06T00:57:50.394Z,97784.78
2023-03-06T01:00:18.413Z,97783.06
2023-03-06T01:02:45.319Z,97777.03
2023-03-06T01:05:14.514Z,97775.25
2023-03-06T01:07:41.526Z,97769.47
2023-03-06T01:10:10.690Z,97779.13
2023-03-06T01:12:37.767Z,97768.75
2023-03-06T01:15:06.994Z,97771.47
2023-03-06T01:17:33.960Z,97765.22
2023-03-06T01:20:01.666Z,97770.34
2023-03-06T01:22:28.655Z,97759.81
2023-03-06T01:24:55.923Z,97757.13
2023-03-06T01:27:22.876Z,97760.59
2023-03-06T01:29:50.037Z,97755.34
2023-03-06T01:32:17.038Z,97762.28
2023-03-06T01:34:44.367Z,97747.56
2023-03-06T01:37:11.530Z,97742.56
2023-03-06T01:39:38.751Z,97738.28
2023-03-06T01:42:06.005Z,97741.81
2023-03-06T01:44:33.475Z,97739.19
2023-03-06T01:47:02.387Z,97741.81
2023-03-06T01:49:36.740Z,97737.81
2023-03-06T01:52:14.577Z,97738.84
2023-03-06T01:54:59.199Z,97747.47
2023-03-06T01:57:34.046Z,97735.44
2023-03-06T02:00:14.726Z,97731.84
2023-03-06T02:02:47.690Z,97729.31
2023-03-06T02:05:14.999Z,97731.06
2023-03-06T02:07:44.926Z,97732.69
2023-03-06T02:10:13.276Z,97715.28
2023-03-06T02:12:43.782Z,97723.06
2023-03-06T02:15:14.904Z,97719.53
2023-03-06T02:17:44.932Z,97721.34
2023-03-06T02:20:21.209Z,97723.16
2023-03-06T02:23:14.873Z,97709.31
2023-03-06T02:25:48.480Z,97710.13
2023-03-06T02:28:21.621Z,97704.03
2023-03-06T02:30:52.333Z,97705.81
2023-03-06T02:33:24.888Z,97705.06
2023-03-06T02:35:58.962Z,97703.50
2023-03-06T02:38:34.452Z,97702.66
2023-03-06T02:41:06.911Z,97697.69
2023-03-06T02:43:40.027Z,97698.44
2023-03-06T02:46:07.913Z,97697.59
2023-03-06T02:48:34.905Z,97698.56
2023-03-06T02:51:02.095Z,97691.56
2023-03-06T02:53:28.987Z,97696.69
2023-03-06T02:55:56.237Z,97689.81
2023-03-06T02:58:23.301Z,97690.56
2023-03-06T03:00:51.072Z,97684.47
2023-03-06T03:03:18.776Z,97686.25
2023-03-06T03:05:45.922Z,97680.19
2023-03-06T03:08:12.936Z,97684.63
2023-03-06T03:10:40.221Z,97680.47
2023-03-06T03:13:07.337Z,97675.22
2023-03-06T03:15:34.653Z,97678.75
2023-03-06T03:18:01.578Z,97680.53
2023-03-06T03:20:28.830Z,97669.19
2023-03-06T03:22:56.452Z,97670.94
2023-03-06T03:25:26.352Z,97682.22
2023-03-06T03:27:53.767Z,97672.66
2023-03-06T03:30:21.135Z,97659.69
2023-03-06T03:32:48.092Z,97668.59
2023-03-06T03:35:15.320Z,97667.56
2023-03-06T03:37:42.374Z,97663.19
2023-03-06T03:40:10.816Z,97660.59
2023-03-06T03:42:37.908Z,97658.91
2023-03-06T03:45:05.678Z,97651.88
2023-03-06T03:47:32.703Z,97657.75
2023-03-06T03:49:59.855Z,97649.03
2023-03-06T03:52:26.923Z,97650.78
2023-03-06T03:54:54.224Z,97655.03
2023-03-06T03:57:21.272Z,97649.13
2023-03-06T03:59:48.460Z,97641.28
2023-03-06T04:02:15.653Z,97638.81
2023-03-06T04:04:43.348Z,97640.53
2023-03-06T04:07:10.436Z,97637.94
2023-03-06T04:09:37.736Z,97638.81
2023-03-06T04:12:06.461Z,97634.38
2023-03-06T04:14:34.279Z,97627.41
2023-03-06T04:17:01.228Z,97630.91
2023-03-06T04:19:28.536Z,97627.41
2023-03-06T04:21:55.457Z,97627.38
2023-03-06T04:24:22.636Z,97623.09
2023-03-06T04:26:49.550Z,97621.41
2023-03-06T04:29:16.970Z,97615.44
2023-03-06T04:31:43.915Z,97620.56
2023-03-06T04:34:11.281Z,97617.13
2023-03-06T04:36:38.703Z,97618.13
2023-03-06T04:39:05.942Z,97617.16
2023-03-06T04:41:33.800Z,97614.66
2023-03-06T04:44:01.120Z,97612.84
2023-03-06T04:46:28.074Z,97612.00
2023-03-06T04:48:55.303Z,97605.03
2023-03-06T04:51:22.295Z,97616.28
2023-03-06T04:53:49.671Z,97606.91
2023-03-06T04:56:16.736Z,97608.59
2023-03-06T04:58:45.177Z,97602.53
2023-03-06T05:01:12.902Z,97606.00
2023-03-06T05:03:40.313Z,97608.63
2023-03-06T05:06:07.655Z,97594.66
2023-03-06T05:08:35.186Z,97595.63
2023-03-06T05:11:02.572Z,97591.28
2023-03-06T05:13:29.937Z,97587.78
2023-03-06T05:16:04.037Z,97600.81
2023-03-06T05:18:32.766Z,97589.31
2023-03-06T05:21:00.195Z,97591.78
2023-03-06T05:23:29.678Z,97589.03
2023-03-06T05:25:58.259Z,97600.19
2023-03-06T05:28:26.536Z,97590.53
2023-03-06T05:30:53.622Z,97589.81
2023-03-06T05:33:20.820Z,97589.75
2023-03-06T05:35:49.009Z,97584.59
2023-03-06T05:38:17.695Z,97582.25
2023-03-06T05:40:45.897Z,97589.88
2023-03-06T05:43:13.290Z,97590.72
2023-03-06T05:45:41.307Z,97595.28
2023-03-06T05:48:09.311Z,97597.97
2023-03-06T05:50:36.296Z,97588.41
2023-03-06T05:53:03.859Z,97588.41
2023-03-06T05:55:31.206Z,97585.75
2023-03-06T05:57:58.477Z,97586.56
2023-03-06T06:00:25.802Z,97589.13
2023-03-06T06:02:54.457Z,97589.09
2023-03-06T06:05:21.404Z,97591.53
2023-03-06T06:07:48.686Z,97593.09
2023-03-06T06:10:15.976Z,97592.09
2023-03-06T06:12:43.368Z,97600.72
2023-03-06T06:15:10.764Z,97593.75
2023-03-06T06:17:38.029Z,97596.28
2023-03-06T06:20:05.657Z,97594.56
2023-03-06T06:22:37.988Z,97591.06
2023-03-06T06:25:06.727Z,97587.53
2023-03-06T06:27:34.394Z,97589.25
2023-03-06T06:30:01.374Z,97587.47
2023-03-06T06:32:28.766Z,97591.59
2023-03-06T06:34:55.906Z,97585.31
2023-03-06T06:37:23.417Z,97589.59
2023-03-06T06:39:50.889Z,97589.41
2023-03-06T06:42:31.460Z,97586.72
2023-03-06T06:45:05.386Z,97589.47
2023-03-06T06:47:34.344Z,97582.59
2023-03-06T06:50:01.492Z,97578.19
2023-03-06T06:52:28.808Z,97586.06
2023-03-06T06:54:55.830Z,97579.09
2023-03-06T06:57:23.037Z,97585.47
2023-03-06T06:59:52.392Z,97586.53
2023-03-06T07:02:21.293Z,97582.22
2023-03-06T07:05:02.942Z,97577.75
2023-03-06T07:07:37.343Z,97581.06
2023-03-06T07:10:11.967Z,97579.34
2023-03-06T07:12:39.370Z,97580.00
2023-03-06T07:15:08.236Z,97574.78
2023-03-06T07:17:35.893Z,97574.84
2023-03-06T07:20:04.624Z,97575.38
2023-03-06T07:22:41.431Z,97574.31
2023-03-06T07:25:12.691Z,97580.97
2023-03-06T07:27:40.062Z,97567.63
2023-03-06T07:30:08.363Z,97576.81
2023-03-06T07:32:36.037Z,97565.34
2023-03-06T07:35:19.019Z,97565.06
2023-03-06T07:37:47.152Z,97567.63
2023-03-06T07:40:14.563Z,97562.38
2023-03-06T07:42:41.806Z,97558.97
2023-03-06T07:45:18.031Z,97563.75
2023-03-06T07:47:46.345Z,97568.72
2023-03-06T07:50:13.658Z,97571.84
2023-03-06T07:52:40.955Z,97562.28
2023-03-06T07:55:09.708Z,97561.41
2023-03-06T07:57:38.684Z,97566.63
2023-03-06T08:00:10.471Z,97566.88
2023-03-06T08:02:37.770Z,97563.34
2023-03-06T08:05:06.317Z,97557.19
2023-03-06T08:07:33.836Z,97551.97
2023-03-06T08:10:01.154Z,97559.25
2023-03-06T08:12:28.555Z,97553.72
2023-03-06T08:14:55.561Z,97559.63
2023-03-06T08:17:22.973Z,97562.25
2023-03-06T08:19:50.155Z,97555.56
2023-03-06T08:22:17.455Z,97552.94
2023-03-06T08:24:44.469Z,97550.03
2023-03-06T08:27:11.696Z,97545.22
2023-03-06T08:29:38.752Z,97551.22
2023-03-06T08:32:06.420Z,97552.69
2023-03-06T08:34:33.435Z,97556.88
2023-03-06T08:37:00.590Z,97554.88
2023-03-06T08:39:27.521Z,97554.91
2023-03-06T08:41:54.751Z,97560.66
2023-03-06T08:44:21.698Z,97563.81
2023-03-06T08:46:49.005Z,97561.72
2023-03-06T08:49:15.914Z,97556.16
2023-03-06T08:51:43.315Z,97550.81
2023-03-06T08:54:13.371Z,97559.69
2023-03-06T08:56:40.784Z,97552.41
2023-03-06T08:59:09.443Z,97552.28
2023-03-06T09:01:38.476Z,97558.38
2023-03-06T09:04:09.934Z,97559.75
2023-03-06T09:06:41.422Z,97548.88
2023-03-06T09:09:09.539Z,97552.88
2023-03-06T09:11:37.422Z,97554.19
2023-03-06T09:14:05.652Z,97557.69
2023-03-06T09:16:33.561Z,97553.53
2023-03-06T09:19:00.651Z,97564.19
2023-03-06T09:21:28.740Z,97561.56
2023-03-06T09:23:56.213Z,97564.28
2023-03-06T09:26:32.803Z,97550.88
2023-03-06T09:29:07.651Z,97557.47
2023-03-06T09:31:35.261Z,97554.50
2023-03-06T09:34:02.228Z,97543.59
2023-03-06T09:36:30.394Z,97550.06
2023-03-06T09:38:57.443Z,97552.19
2023-03-06T09:41:27.848Z,97548.22
2023-03-06T09:44:13.526Z,97543.38
2023-03-06T09:47:21.545Z,97550.28
2023-03-06T09:50:32.755Z,97547.03
2023-03-06T09:53:27.517Z,97547.25
2023-03-06T09:56:23.511Z,97546.31
2023-03-06T09:58:58.270Z,97537.81
2023-03-06T10:01:31.677Z,97533.00
2023-03-06T10:04:38.818Z,97529.03
2023-03-06T10:07:42.708Z,97528.13
2023-03-06T10:10:22.466Z,97528.13
2023-03-06T10:13:19.595Z,97528.13
2023-03-06T10:15:49.928Z,97533.91
2023-03-06T10:18:17.133Z,97527.78
2023-03-06T10:21:07.387Z,97527.53
2023-03-06T10:24:09.521Z,97519.69
2023-03-06T10:26:59.531Z,97522.50
2023-03-06T10:30:02.833Z,97521.59
2023-03-06T10:32:55.217Z,97518.75
2023-03-06T10:35:36.864Z,97521.97
2023-03-06T10:38:27.057Z,97529.94
2023-03-06T10:41:12.469Z,97522.03
2023-03-06T10:43:46.008Z,97528.19
2023-03-06T10:46:32.056Z,97523.69
2023-03-06T10:49:24.333Z,97528.59
2023-03-06T10:52:16.446Z,97518.06
2023-03-06T10:54:45.672Z,97516.91
2023-03-06T10:57:24.934Z,97516.75
2023-03-06T11:00:05.305Z,97512.31
2023-03-06T11:02:38.661Z,97520.22
2023-03-06T11:05:19.989Z,97511.34
2023-03-06T11:08:01.185Z,97509.19
2023-03-06T11:10:31.106Z,97503.47
2023-03-06T11:13:08.574Z,97511.72
2023-03-06T11:15:36.323Z,97500.75
2023-03-06T11:18:31.038Z,97491.75
2023-03-06T11:20:58.495Z,97496.28
2023-03-06T11:23:43.724Z,97489.97
2023-03-06T11:26:16.878Z,97497.78
2023-03-06T11:29:07.679Z,97483.31
2023-03-06T11:31:56.976Z,97493.41
2023-03-06T11:35:35.907Z,97477.13
2023-03-06T11:38:16.005Z,97470.81
2023-03-06T11:40:55.908Z,97472.59
2023-03-06T11:43:49.683Z,97463.47
2023-03-06T11:46:48.684Z,97471.16
2023-03-06T11:49:32.206Z,97465.59
2023-03-06T11:52:10.292Z,97458.59
2023-03-06T11:54:37.621Z,97448.56
2023-03-06T11:57:35.294Z,97449.78
2023-03-06T12:00:22.963Z,97448.44
2023-03-06T12:03:14.627Z,97445.34
2023-03-06T12:06:23.195Z,97440.44
2023-03-06T12:09:23.328Z,97437.88
2023-03-06T12:12:07.339Z,97427.25
2023-03-06T12:15:12.633Z,97423.34
2023-03-06T12:17:48.656Z,97422.38
2023-03-06T12:20:49.454Z,97418.16
2023-03-06T12:24:10.742Z,97418.97
2023-03-06T12:27:08.477Z,97419.13
2023-03-06T12:30:24.781Z,97407.41
2023-03-06T12:33:13.029Z,97406.09
2023-03-06T12:35:53.869Z,97402.22
2023-03-06T12:38:45.986Z,97405.50
2023-03-06T12:41:35.595Z,97400.53
2023-03-06T12:44:16.496Z,97397.31
2023-03-06T12:47:02.402Z,97393.75
2023-03-06T12:49:38.687Z,97395.91
2023-03-06T12:52:09.796Z,97392.03
2023-03-06T12:54:41.196Z,97379.41
2023-03-06T12:57:10.079Z,97379.56
2023-03-06T12:59:50.011Z,97378.00
2023-03-06T13:02:54.819Z,97378.19
2023-03-06T13:05:38.389Z,97388.38
2023-03-06T13:08:46.548Z,97386.22
2023-03-06T13:11:27.788Z,97398.84
2023-03-06T13:13:55.407Z,97383.63
2023-03-06T13:16:31.669Z,97379.34
2023-03-06T13:19:16.160Z,97383.50
2023-03-06T13:21:56.195Z,97380.41
2023-03-06T13:24:32.739Z,97389.66
2023-03-06T13:27:12.364Z,97388.59
2023-03-06T13:29:39.466Z,97390.44
2023-03-06T13:32:27.909Z,97383.03
2023-03-06T13:34:55.345Z,97386.22
2023-03-06T13:37:25.050Z,97379.19
2023-03-06T13:39:55.276Z,97375.91
2023-03-06T13:42:57.775Z,97374.00
2023-03-06T13:45:42.036Z,97371.06
2023-03-06T13:48:45.729Z,97362.28
2023-03-06T13:51:27.905Z,97357.63
2023-03-06T13:54:09.350Z,97358.16
2023-03-06T13:56:39.493Z,97354.50
2023-03-06T13:59:30.734Z,97348.69
2023-03-06T14:02:47.803Z,97346.31
2023-03-06T14:05:18.007Z,97346.88
2023-03-06T14:08:09.179Z,97346.25
2023-03-06T14:10:38.951Z,97336.16
2023-03-06T14:13:17.515Z,97342.72
2023-03-06T14:15:50.354Z,97340.41
2023-03-06T14:18:40.175Z,97347.72
2023-03-06T14:21:13.793Z,97339.47
2023-03-06T14:23:47.038Z,97349.63
2023-03-06T14:26:29.723Z,97346.53
2023-03-06T14:29:01.475Z,97345.69
2023-03-06T14:31:33.571Z,97337.75
2023-03-06T14:34:23.188Z,97344.13
2023-03-06T14:36:54.710Z,97346.06
2023-03-06T14:39:36.265Z,97340.41
2023-03-06T14:42:25.461Z,97343.69
2023-03-06T14:45:05.643Z,97345.13
2023-03-06T14:47:37.340Z,97346.19
2023-03-06T14:50:28.613Z,97349.53
2023-03-06T14:53:29.407Z,97343.56
2023-03-06T14:56:06.298Z,97341.91
2023-03-06T14:59:08.827Z,97346.22
2023-03-06T15:01:45.694Z,97348.09
2023-03-06T15:05:09.287Z,97345.78
2023-03-06T15:07:37.433Z,97347.25
2023-03-06T15:10:10.516Z,97355.91
2023-03-06T15:12:38.924Z,97360.06
2023-03-06T15:15:10.488Z,97367.00
2023-03-06T15:17:44.190Z,97364.88
2023-03-06T15:20:42.020Z,97361.91
2023-03-06T15:23:34.059Z,97381.19
2023-03-06T15:26:19.085Z,97379.16
2023-03-06T15:29:12.923Z,97384.53
2023-03-06T15:31:45.743Z,97375.91
2023-03-06T15:34:12.956Z,97377.88
2023-03-06T15:36:51.480Z,97376.91
2023-03-06T15:39:39.991Z,97383.22
2023-03-06T15:42:29.295Z,97395.44
2023-03-06T15:45:03.353Z,97388.53
2023-03-06T15:47:30.546Z,97396.38
2023-03-06T15:49:57.889Z,97394.88
2023-03-06T15:52:25.096Z,97398.50
2023-03-06T15:54:52.414Z,97398.06
2023-03-06T15:57:29.454Z,97389.72
2023-03-06T16:00:00.221Z,97382.25
2023-03-06T16:02:27.657Z,97377.25
2023-03-06T16:04:55.098Z,97367.03
2023-03-06T16:07:22.343Z,97368.09
2023-03-06T16:09:49.763Z,97369.06
2023-03-06T16:12:20.461Z,97366.38
2023-03-06T16:14:49.347Z,97373.63
2023-03-06T16:17:17.691Z,97369.66
2023-03-06T16:19:45.334Z,97371.56
2023-03-06T16:22:12.633Z,97367.81
2023-03-06T16:24:39.792Z,97370.19
2023-03-06T16:27:16.016Z,97369.25
2023-03-06T16:29:46.596Z,97371.69
2023-03-06T16:32:15.120Z,97377.16
2023-03-06T16:34:42.420Z,97380.97
2023-03-06T16:37:13.892Z,97375.31
2023-03-06T16:39:41.220Z,97375.41
2023-03-06T16:42:08.501Z,97376.44
2023-03-06T16:44:35.843Z,97385.41
2023-03-06T16:47:03.169Z,97383.75
2023-03-06T16:49:30.550Z,97380.06
2023-03-06T16:51:57.820Z,97371.63
2023-03-06T16:54:26.289Z,97377.56
2023-03-06T16:56:53.386Z,97372.06
2023-03-06T16:59:20.670Z,97374.72
2023-03-06T17:01:47.708Z,97384.47
2023-03-06T17:04:15.126Z,97376.63
2023-03-06T17:06:43.262Z,97390.50
2023-03-06T17:09:11.041Z,97381.66
2023-03-06T17:11:43.496Z,97394.19
2023-03-06T17:14:11.247Z,97388.00
2023-03-06T17:16:40.572Z,97392.47
2023-03-06T17:19:15.324Z,97393.47
2023-03-06T17:21:44.416Z,97399.41
2023-03-06T17:24:11.750Z,97407.19
2023-03-06T17:26:39.218Z,97403.38
2023-03-06T17:29:07.188Z,97406.78
2023-03-06T17:31:35.645Z,97412.53
2023-03-06T17:34:03.039Z,97411.66
2023-03-06T17:36:31.920Z,97414.13
2023-03-06T17:39:02.170Z,97420.25
2023-03-06T17:41:30.161Z,97422.88
2023-03-06T17:43:59.136Z,97418.59
2023-03-06T17:46:26.567Z,97414.97
2023-03-06T17:48:55.340Z,97428.09
2023-03-06T17:51:22.337Z,97410.66
2023-03-06T17:53:52.216Z,97425.72
2023-03-06T17:56:19.410Z,97420.28
2023-03-06T17:58:46.639Z,97419.19
2023-03-06T18:01:23.141Z,97425.28
2023-03-06T18:03:51.857Z,97422.59
2023-03-06T18:06:20.787Z,97425.16
2023-03-06T18:08:52.305Z,97423.50
2023-03-06T18:11:20.281Z,97420.34
2023-03-06T18:13:48.840Z,97421.94
2023-03-06T18:16:20.587Z,97415.78
2023-03-06T18:18:48.190Z,97418.22
2023-03-06T18:21:16.784Z,97426.06
2023-03-06T18:23:44.262Z,97434.63
2023-03-06T18:26:16.729Z,97422.72
2023-03-06T18:28:48.589Z,97424.41
2023-03-06T18:31:23.450Z,97434.50
2023-03-06T18:33:57.284Z,97427.75
2023-03-06T18:36:30.411Z,97433.81
2023-03-06T18:39:00.792Z,97433.66
2023-03-06T18:41:28.523Z,97441.41
2023-03-06T18:43:59.941Z,97433.66
2023-03-06T18:46:33.082Z,97431.88
2023-03-06T18:49:01.571Z,97431.75
2023-03-06T18:51:29.349Z,97436.38
2023-03-06T18:53:58.293Z,97432.78
2023-03-06T18:56:25.473Z,97437.78
2023-03-06T18:58:53.939Z,97436.94
2023-03-06T19:01:22.636Z,97436.19
2023-03-06T19:03:50.412Z,97438.88
2023-03-06T19:06:18.209Z,97444.81
2023-03-06T19:08:45.425Z,97443.59
2023-03-06T19:11:16.244Z,97443.00
2023-03-06T19:13:44.813Z,97434.44
2023-03-06T19:16:23.269Z,97437.00
2023-03-06T19:18:51.005Z,97436.88
2023-03-06T19:21:21.124Z,97446.28
2023-03-06T19:23:48.910Z,97436.88
2023-03-06T19:26:18.821Z,97434.56
2023-03-06T19:28:47.731Z,97436.31
2023-03-06T19:31:21.909Z,97437.00
2023-03-06T19:33:53.040Z,97434.38
2023-03-06T19:36:26.500Z,97434.44
2023-03-06T19:39:03.939Z,97436.06
2023-03-06T19:41:30.898Z,97434.31
2023-03-06T19:44:02.665Z,97442.00
2023-03-06T19:46:30.007Z,97439.72
2023-03-06T19:49:02.770Z,97430.09
2023-03-06T19:51:30.091Z,97439.84
2023-03-06T19:53:58.210Z,97435.44
2023-03-06T19:56:29.067Z,97435.41
2023-03-06T19:58:57.024Z,97445.72
2023-03-06T20:01:27.916Z,97446.50
2023-03-06T20:03:59.239Z,97439.72
2023-03-06T20:06:33.460Z,97441.66
2023-03-06T20:09:04.122Z,97447.78
2023-03-06T20:11:31.376Z,97443.63
2023-03-06T20:14:01.716Z,97438.22
2023-03-06T20:16:30.259Z,97442.50
2023-03-06T20:19:00.775Z,97442.56
2023-03-06T20:21:31.246Z,97445.19
2023-03-06T20:23:59.670Z,97450.59
2023-03-06T20:26:29.630Z,97453.00
2023-03-06T20:28:58.451Z,97451.06
2023-03-06T20:31:29.367Z,97450.88
2023-03-06T20:33:59.400Z,97444.81
2023-03-06T20:36:31.388Z,97448.16
2023-03-06T20:39:10.186Z,97450.78
2023-03-06T20:41:37.892Z,97454.22
2023-03-06T20:44:08.780Z,97455.00
2023-03-06T20:46:36.729Z,97449.84
2023-03-06T20:49:05.492Z,97448.94
2023-03-06T20:52:18.908Z,97453.38
2023-03-06T20:54:46.611Z,97457.88
2023-03-06T20:57:14.221Z,97452.00
2023-03-06T20:59:44.161Z,97448.56
2023-03-06T21:02:12.108Z,97446.84
2023-03-06T21:04:41.104Z,97443.63
2023-03-06T21:07:08.456Z,97456.78
2023-03-06T21:09:37.743Z,97443.97
2023-03-06T21:12:06.359Z,97443.97
2023-03-06T21:14:33.871Z,97442.88
2023-03-06T21:17:01.368Z,97442.63
2023-03-06T21:19:29.037Z,97442.75
2023-03-06T21:21:56.128Z,97435.66
2023-03-06T21:24:23.906Z,97439.34
2023-03-06T21:26:52.090Z,97439.78
2023-03-06T21:29:19.654Z,97434.38
2023-03-06T21:31:46.592Z,97432.84
2023-03-06T21:34:13.788Z,97437.31
2023-03-06T21:36:41.194Z,97435.56
2023-03-06T21:39:08.550Z,97428.16
2023-03-06T21:41:35.813Z,97432.28
2023-03-06T21:44:06.026Z,97431.22
2023-03-06T21:46:34.161Z,97433.47
2023-03-06T21:49:04.550Z,97424.50
2023-03-06T21:51:32.099Z,97435.44
2023-03-06T21:53:59.463Z,97431.00
2023-03-06T21:56:28.564Z,97430.13
2023-03-06T21:58:58.258Z,97435.66
2023-03-06T22:01:28.969Z,97427.81
2023-03-06T22:03:58.322Z,97419.22
2023-03-06T22:06:29.550Z,97415.72
2023-03-06T22:08:59.637Z,97425.88
2023-03-06T22:11:31.266Z,97421.00
2023-03-06T22:13:58.784Z,97422.41
2023-03-06T22:16:25.876Z,97419.56
2023-03-06T22:18:53.214Z,97421.19
2023-03-06T22:21:22.888Z,97422.13
2023-03-06T22:23:59.455Z,97416.16
2023-03-06T22:26:28.990Z,97416.41
2023-03-06T22:28:56.526Z,97410.94
2023-03-06T22:31:27.197Z,97409.22
2023-03-06T22:33:57.030Z,97413.91
2023-03-06T22:36:25.160Z,97409.69
2023-03-06T22:39:04.407Z,97411.63
2023-03-06T22:41:31.926Z,97411.41
2023-03-06T22:44:02.280Z,97410.38
2023-03-06T22:46:30.479Z,97412.03
2023-03-06T22:49:00.234Z,97417.94
2023-03-06T22:51:29.779Z,97409.88
2023-03-06T22:53:57.130Z,97412.56
2023-03-06T22:56:24.913Z,97410.97
2023-03-06T22:58:52.364Z,97405.03
2023-03-06T23:01:26.390Z,97409.16
2023-03-06T23:04:08.455Z,97406.38
2023-03-06T23:06:39.946Z,97398.59
2023-03-06T23:09:14.809Z,97399.38
2023-03-06T23:11:42.452Z,97403.88
2023-03-06T23:14:12.581Z,97395.88
2023-03-06T23:16:40.161Z,97407.16
2023-03-06T23:19:07.731Z,97409.78
2023-03-06T23:21:35.073Z,97402.84
2023-03-06T23:24:03.028Z,97403.56
2023-03-06T23:26:32.017Z,97406.19
2023-03-06T23:28:59.217Z,97404.44
2023-03-06T23:31:30.016Z,97401.88
2023-03-06T23:34:00.579Z,97404.72
2023-03-06T23:36:29.641Z,97405.50
2023-03-06T23:38:58.752Z,97396.94
2023-03-06T23:41:26.222Z,97402.84
2023-03-06T23:43:55.121Z,97397.72
2023-03-06T23:46:22.974Z,97395.94
2023-03-06T23:48:50.316Z,97395.13
2023-03-06T23:51:20.879Z,97387.38
2023-03-06T23:53:56.259Z,97386.41
2023-03-06T23:56:25.133Z,97389.00
2023-03-06T23:58:52.974Z,97387.25
